createdAt,value
2019-01-18T00:00:41.863Z,101026.47
2019-01-18T00:01:46.722Z,101033.41
2019-01-18T00:02:51.694Z,101029.48
2019-01-18T00:03:57.457Z,101023.53
2019-01-18T00:05:02.632Z,101023.92
2019-01-18T00:06:07.157Z,101028.25
2019-01-18T00:07:12.452Z,101029.36
2019-01-18T00:08:17.467Z,101023.64
2019-01-18T00:09:22.274Z,101024.78
2019-01-18T00:10:27.519Z,101028.08
2019-01-18T00:11:32.402Z,101029.23
2019-01-18T00:12:37.214Z,101031.14
2019-01-18T00:13:42.904Z,101027.78
2019-01-18T00:14:47.794Z,101034.93
2019-01-18T00:15:53.088Z,101030.22
2019-01-18T00:16:58.426Z,101032.95
2019-01-18T00:18:03.572Z,101035.99
2019-01-18T00:19:08.546Z,101031.83
2019-01-18T00:20:13.743Z,101039.52
2019-01-18T00:21:18.667Z,101034.74
2019-01-18T00:22:23.553Z,101041.41
2019-01-18T00:23:28.930Z,101038.55
2019-01-18T00:24:33.883Z,101040.25
2019-01-18T00:25:39.404Z,101040.81
2019-01-18T00:26:44.472Z,101044.59
2019-01-18T00:27:49.352Z,101049.80
2019-01-18T00:28:54.172Z,101051.19
2019-01-18T00:30:02.416Z,101050.89
2019-01-18T00:31:07.717Z,101052.92
2019-01-18T00:32:12.955Z,101054.98
2019-01-18T00:33:17.959Z,101059.55
2019-01-18T00:34:23.297Z,101058.97
2019-01-18T00:35:28.854Z,101055.95
2019-01-18T00:36:34.147Z,101058.39
2019-01-18T00:37:39.641Z,101064.05
2019-01-18T00:38:44.770Z,101060.48
2019-01-18T00:39:50.048Z,101063.66
2019-01-18T00:40:56.035Z,101067.67
2019-01-18T00:42:01.550Z,101059.64
2019-01-18T00:43:06.776Z,101063.68
2019-01-18T00:44:11.671Z,101061.91
2019-01-18T00:45:17.395Z,101063.39
2019-01-18T00:46:22.653Z,101063.28
2019-01-18T00:47:28.394Z,101067.49
2019-01-18T00:48:33.320Z,101068.92
2019-01-18T00:49:38.293Z,101073.41
2019-01-18T00:50:44.170Z,101074.99
2019-01-18T00:51:49.216Z,101076.47
2019-01-18T00:52:55.138Z,101088.44
2019-01-18T00:54:00.811Z,101081.69
2019-01-18T00:55:06.030Z,101085.05
2019-01-18T00:56:10.884Z,101084.22
2019-01-18T00:57:17.196Z,101085.58
2019-01-18T00:58:22.297Z,101088.04
2019-01-18T00:59:27.820Z,101087.54
2019-01-18T01:00:33.097Z,101085.45
2019-01-18T01:01:38.418Z,101084.80
2019-01-18T01:02:42.917Z,101085.30
2019-01-18T01:03:48.255Z,101082.70
2019-01-18T01:04:54.136Z,101083.02
2019-01-18T01:05:59.298Z,101088.32
2019-01-18T01:07:04.633Z,101089.69
2019-01-18T01:08:09.475Z,101093.68
2019-01-18T01:09:14.423Z,101091.62
2019-01-18T01:10:19.564Z,101108.05
2019-01-18T01:11:24.982Z,101105.09
2019-01-18T01:12:30.144Z,101105.98
2019-01-18T01:13:34.954Z,101111.06
2019-01-18T01:14:40.935Z,101109.41
2019-01-18T01:15:46.262Z,101114.17
2019-01-18T01:16:51.100Z,101113.44
2019-01-18T01:17:59.356Z,101114.80
2019-01-18T01:19:04.636Z,101106.47
2019-01-18T01:20:10.180Z,101118.69
2019-01-18T01:21:15.310Z,101109.39
2019-01-18T01:22:19.907Z,101119.87
2019-01-18T01:23:25.405Z,101115.19
2019-01-18T01:24:30.403Z,101117.81
2019-01-18T01:25:35.258Z,101121.50
2019-01-18T01:26:39.919Z,101118.95
2019-01-18T01:27:44.721Z,101123.55
2019-01-18T01:28:49.631Z,101129.82
2019-01-18T01:29:54.987Z,101132.22
2019-01-18T01:31:00.016Z,101129.82
2019-01-18T01:32:05.214Z,101134.03
2019-01-18T01:33:10.059Z,101137.61
2019-01-18T01:34:14.928Z,101139.19
2019-01-18T01:35:19.881Z,101141.82
2019-01-18T01:36:25.442Z,101143.79
2019-01-18T01:37:30.793Z,101146.19
2019-01-18T01:38:35.607Z,101143.09
2019-01-18T01:39:41.018Z,101149.09
2019-01-18T01:40:46.385Z,101151.19
2019-01-18T01:41:51.182Z,101153.73
2019-01-18T01:42:56.110Z,101156.89
2019-01-18T01:44:00.944Z,101158.64
2019-01-18T01:45:06.472Z,101160.39
2019-01-18T01:46:11.732Z,101163.89
2019-01-18T01:47:17.454Z,101161.03
2019-01-18T01:48:23.724Z,101170.55
2019-01-18T01:49:29.249Z,101166.59
2019-01-18T01:50:34.106Z,101163.41
2019-01-18T01:51:38.996Z,101165.72
2019-01-18T01:52:44.302Z,101172.37
2019-01-18T01:53:50.213Z,101175.17
2019-01-18T01:54:55.192Z,101179.44
2019-01-18T01:56:00.524Z,101185.00
2019-01-18T01:57:05.040Z,101175.00
2019-01-18T01:58:09.977Z,101181.66
2019-01-18T01:59:15.138Z,101182.36
2019-01-18T02:00:28.107Z,101183.81
2019-01-18T02:01:33.366Z,101187.39
2019-01-18T02:02:38.791Z,101193.56
2019-01-18T02:03:44.669Z,101189.67
2019-01-18T02:04:49.902Z,101188.89
2019-01-18T02:05:55.860Z,101188.02
2019-01-18T02:07:01.467Z,101195.86
2019-01-18T02:08:06.312Z,101196.91
2019-01-18T02:09:12.099Z,101195.47
2019-01-18T02:10:17.991Z,101205.71
2019-01-18T02:11:22.845Z,101198.47
2019-01-18T02:12:28.524Z,101203.89
2019-01-18T02:13:34.612Z,101205.22
2019-01-18T02:14:40.237Z,101200.88
2019-01-18T02:15:45.099Z,101206.41
2019-01-18T02:16:50.368Z,101202.77
2019-01-18T02:17:55.596Z,101208.81
2019-01-18T02:19:00.497Z,101207.54
2019-01-18T02:20:05.828Z,101207.47
2019-01-18T02:21:11.008Z,101208.81
2019-01-18T02:22:16.297Z,101211.25
2019-01-18T02:23:21.532Z,101213.57
2019-01-18T02:24:27.071Z,101220.94
2019-01-18T02:25:32.439Z,101216.89
2019-01-18T02:26:37.570Z,101211.83
2019-01-18T02:27:43.441Z,101217.52
2019-01-18T02:28:48.723Z,101224.67
2019-01-18T02:29:56.763Z,101226.13
2019-01-18T02:31:00.641Z,101224.28
2019-01-18T02:32:06.179Z,101223.34
2019-01-18T02:33:10.930Z,101227.77
2019-01-18T02:34:16.121Z,101225.96
2019-01-18T02:35:21.338Z,101225.48
2019-01-18T02:36:27.011Z,101232.22
2019-01-18T02:37:31.616Z,101229.29
2019-01-18T02:38:37.057Z,101232.37
2019-01-18T02:39:41.887Z,101237.86
2019-01-18T02:40:47.278Z,101236.10
2019-01-18T02:41:51.784Z,101239.04
2019-01-18T02:42:56.746Z,101245.64
2019-01-18T02:44:02.525Z,101243.63
2019-01-18T02:45:09.018Z,101243.95
2019-01-18T02:46:13.929Z,101244.58
2019-01-18T02:47:19.169Z,101247.83
2019-01-18T02:48:24.333Z,101255.75
2019-01-18T02:49:29.535Z,101253.77
2019-01-18T02:50:34.374Z,101256.69
2019-01-18T02:51:39.701Z,101257.09
2019-01-18T02:52:44.922Z,101248.89
2019-01-18T02:53:49.455Z,101258.75
2019-01-18T02:54:54.538Z,101250.92
2019-01-18T02:55:59.784Z,101258.95
2019-01-18T02:57:05.625Z,101264.34
2019-01-18T02:58:10.410Z,101256.26
2019-01-18T02:59:15.377Z,101265.33
2019-01-18T03:00:22.527Z,101267.94
2019-01-18T03:01:27.740Z,101259.74
2019-01-18T03:02:33.413Z,101256.02
2019-01-18T03:03:38.033Z,101269.59
2019-01-18T03:04:44.017Z,101266.11
2019-01-18T03:05:49.453Z,101271.86
2019-01-18T03:06:54.398Z,101273.70
2019-01-18T03:07:59.763Z,101272.13
2019-01-18T03:09:06.568Z,101275.13
2019-01-18T03:10:19.866Z,101276.16
2019-01-18T03:11:25.129Z,101280.78
2019-01-18T03:12:30.438Z,101279.42
2019-01-18T03:13:36.383Z,101283.10
2019-01-18T03:14:42.765Z,101276.81
2019-01-18T03:15:48.000Z,101289.44
2019-01-18T03:16:53.919Z,101288.19
2019-01-18T03:17:59.112Z,101293.32
2019-01-18T03:19:03.924Z,101294.67
2019-01-18T03:20:10.931Z,101295.31
2019-01-18T03:21:16.232Z,101292.31
2019-01-18T03:22:25.274Z,101298.05
2019-01-18T03:23:32.194Z,101304.55
2019-01-18T03:24:37.600Z,101307.17
2019-01-18T03:25:42.945Z,101307.48
2019-01-18T03:26:48.895Z,101312.81
2019-01-18T03:27:54.613Z,101312.73
2019-01-18T03:28:59.509Z,101312.34
2019-01-18T03:30:04.309Z,101308.29
2019-01-18T03:31:09.966Z,101316.25
2019-01-18T03:32:14.501Z,101320.45
2019-01-18T03:33:19.439Z,101318.95
2019-01-18T03:34:25.521Z,101323.08
2019-01-18T03:35:32.806Z,101322.60
2019-01-18T03:36:37.975Z,101330.41
2019-01-18T03:37:42.953Z,101332.21
2019-01-18T03:38:48.134Z,101327.51
2019-01-18T03:39:53.549Z,101336.67
2019-01-18T03:40:59.216Z,101336.25
2019-01-18T03:42:05.043Z,101339.69
2019-01-18T03:43:10.600Z,101334.66
2019-01-18T03:44:15.750Z,101338.80
2019-01-18T03:45:20.688Z,101341.05
2019-01-18T03:46:25.508Z,101338.90
2019-01-18T03:47:30.758Z,101344.23
2019-01-18T03:48:36.566Z,101350.16
2019-01-18T03:49:41.384Z,101353.97
2019-01-18T03:50:47.551Z,101353.52
2019-01-18T03:51:53.190Z,101350.73
2019-01-18T03:52:57.865Z,101363.53
2019-01-18T03:54:02.924Z,101359.05
2019-01-18T03:55:07.897Z,101362.02
2019-01-18T03:56:14.128Z,101364.00
2019-01-18T03:57:19.594Z,101363.53
2019-01-18T03:58:24.936Z,101368.53
2019-01-18T03:59:30.710Z,101364.02
2019-01-18T04:00:35.916Z,101368.31
2019-01-18T04:01:41.278Z,101377.20
2019-01-18T04:02:46.202Z,101375.76
2019-01-18T04:03:51.623Z,101375.51
2019-01-18T04:04:56.871Z,101378.63
2019-01-18T04:06:01.852Z,101378.93
2019-01-18T04:07:07.683Z,101380.22
2019-01-18T04:08:13.416Z,101383.23
2019-01-18T04:09:19.165Z,101377.66
2019-01-18T04:10:24.002Z,101380.13
2019-01-18T04:11:29.348Z,101383.88
2019-01-18T04:12:34.501Z,101384.48
2019-01-18T04:13:40.310Z,101390.05
2019-01-18T04:14:45.296Z,101380.22
2019-01-18T04:15:50.524Z,101386.72
2019-01-18T04:16:55.763Z,101382.81
2019-01-18T04:18:01.045Z,101388.23
2019-01-18T04:19:05.963Z,101382.81
2019-01-18T04:20:12.499Z,101388.30
2019-01-18T04:21:18.499Z,101382.89
2019-01-18T04:22:23.315Z,101381.63
2019-01-18T04:23:28.110Z,101384.64
2019-01-18T04:24:33.161Z,101386.37
2019-01-18T04:25:38.034Z,101390.20
2019-01-18T04:26:43.220Z,101388.30
2019-01-18T04:27:48.182Z,101391.41
2019-01-18T04:28:53.773Z,101384.78
2019-01-18T04:29:58.843Z,101386.05
2019-01-18T04:31:04.099Z,101390.80
2019-01-18T04:32:09.388Z,101393.77
2019-01-18T04:33:15.299Z,101397.88
2019-01-18T04:34:20.502Z,101396.45
2019-01-18T04:35:25.382Z,101398.27
2019-01-18T04:36:31.109Z,101395.46
2019-01-18T04:37:36.459Z,101401.70
2019-01-18T04:38:42.463Z,101395.73
2019-01-18T04:39:47.707Z,101405.56
2019-01-18T04:40:53.047Z,101404.72
2019-01-18T04:41:59.017Z,101405.92
2019-01-18T04:43:04.216Z,101408.38
2019-01-18T04:44:09.444Z,101413.06
2019-01-18T04:45:14.661Z,101414.34
2019-01-18T04:46:20.479Z,101415.12
2019-01-18T04:47:25.288Z,101413.45
2019-01-18T04:48:34.412Z,101416.39
2019-01-18T04:49:39.788Z,101416.48
2019-01-18T04:50:45.011Z,101411.46
2019-01-18T04:51:49.863Z,101409.89
2019-01-18T04:52:55.084Z,101420.30
2019-01-18T04:54:03.538Z,101419.33
2019-01-18T04:55:09.606Z,101425.68
2019-01-18T04:56:15.247Z,101419.41
2019-01-18T04:57:20.159Z,101426.05
2019-01-18T04:58:26.635Z,101430.06
2019-01-18T04:59:32.171Z,101427.16
2019-01-18T05:00:40.880Z,101430.55
2019-01-18T05:01:44.862Z,101441.05
2019-01-18T05:02:50.339Z,101435.45
2019-01-18T05:03:55.488Z,101439.16
2019-01-18T05:04:59.996Z,101437.29
2019-01-18T05:06:04.886Z,101437.48
2019-01-18T05:07:10.122Z,101441.73
2019-01-18T05:08:15.848Z,101441.62
2019-01-18T05:09:21.342Z,101433.76
2019-01-18T05:10:28.220Z,101440.50
2019-01-18T05:11:33.411Z,101439.00
2019-01-18T05:12:38.443Z,101438.75
2019-01-18T05:13:44.026Z,101440.20
2019-01-18T05:14:48.827Z,101441.59
2019-01-18T05:15:53.962Z,101437.48
2019-01-18T05:16:59.174Z,101442.56
2019-01-18T05:18:04.381Z,101444.56
2019-01-18T05:19:09.604Z,101436.30
2019-01-18T05:20:14.479Z,101439.53
2019-01-18T05:21:19.847Z,101436.63
2019-01-18T05:22:27.373Z,101437.08
2019-01-18T05:23:32.379Z,101439.92
2019-01-18T05:24:38.131Z,101441.87
2019-01-18T05:25:44.077Z,101445.83
2019-01-18T05:26:49.953Z,101440.86
2019-01-18T05:27:55.304Z,101443.01
2019-01-18T05:29:01.213Z,101444.03
2019-01-18T05:30:08.179Z,101446.87
2019-01-18T05:31:13.351Z,101442.91
2019-01-18T05:32:18.246Z,101442.33
2019-01-18T05:33:22.816Z,101446.48
2019-01-18T05:34:28.313Z,101447.30
2019-01-18T05:35:34.267Z,101454.00
2019-01-18T05:36:39.136Z,101458.30
2019-01-18T05:37:44.708Z,101456.39
2019-01-18T05:38:50.139Z,101468.19
2019-01-18T05:39:54.971Z,101466.86
2019-01-18T05:40:59.819Z,101469.39
2019-01-18T05:42:05.099Z,101473.79
2019-01-18T05:43:10.049Z,101472.42
2019-01-18T05:44:15.398Z,101469.82
2019-01-18T05:45:21.430Z,101480.20
2019-01-18T05:46:26.211Z,101479.30
2019-01-18T05:47:31.474Z,101480.95
2019-01-18T05:48:36.711Z,101484.92
2019-01-18T05:49:42.070Z,101484.44
2019-01-18T05:50:47.445Z,101484.23
2019-01-18T05:51:52.619Z,101491.33
2019-01-18T05:52:58.446Z,101499.27
2019-01-18T05:54:03.753Z,101495.46
2019-01-18T05:55:09.370Z,101504.27
2019-01-18T05:56:13.900Z,101504.05
2019-01-18T05:57:18.814Z,101498.78
2019-01-18T05:58:23.972Z,101507.36
2019-01-18T05:59:29.310Z,101508.93
2019-01-18T06:00:41.911Z,101504.76
2019-01-18T06:01:47.723Z,101512.17
2019-01-18T06:02:52.796Z,101513.52
2019-01-18T06:03:57.552Z,101514.49
2019-01-18T06:05:03.155Z,101511.24
2019-01-18T06:06:08.093Z,101512.70
2019-01-18T06:07:13.337Z,101515.58
2019-01-18T06:08:18.992Z,101518.24
2019-01-18T06:09:24.684Z,101521.72
2019-01-18T06:10:29.539Z,101519.59
2019-01-18T06:11:35.022Z,101520.73
2019-01-18T06:12:40.337Z,101518.13
2019-01-18T06:13:45.951Z,101516.78
2019-01-18T06:14:51.325Z,101519.93
2019-01-18T06:15:56.984Z,101514.20
2019-01-18T06:17:01.573Z,101512.46
2019-01-18T06:18:06.472Z,101511.56
2019-01-18T06:19:11.338Z,101510.83
2019-01-18T06:20:15.864Z,101510.60
2019-01-18T06:21:21.573Z,101508.34
2019-01-18T06:22:27.376Z,101506.70
2019-01-18T06:23:32.126Z,101507.78
2019-01-18T06:24:36.924Z,101502.42
2019-01-18T06:25:41.528Z,101512.09
2019-01-18T06:26:46.679Z,101508.41
2019-01-18T06:27:51.228Z,101512.98
2019-01-18T06:28:55.875Z,101509.67
2019-01-18T06:30:01.033Z,101509.98
2019-01-18T06:31:05.843Z,101513.27
2019-01-18T06:32:11.085Z,101516.41
2019-01-18T06:33:16.592Z,101515.05
2019-01-18T06:34:21.814Z,101523.16
2019-01-18T06:35:27.388Z,101526.97
2019-01-18T06:36:31.913Z,101530.16
2019-01-18T06:37:37.027Z,101528.60
2019-01-18T06:38:41.803Z,101532.41
2019-01-18T06:39:46.660Z,101529.11
2019-01-18T06:40:52.112Z,101530.26
2019-01-18T06:41:57.387Z,101534.73
2019-01-18T06:43:02.563Z,101541.47
2019-01-18T06:44:07.800Z,101534.08
2019-01-18T06:45:14.391Z,101538.75
2019-01-18T06:46:19.331Z,101532.80
2019-01-18T06:47:24.108Z,101543.23
2019-01-18T06:48:29.554Z,101538.91
2019-01-18T06:49:34.946Z,101538.75
2019-01-18T06:50:40.341Z,101546.34
2019-01-18T06:51:45.474Z,101536.88
2019-01-18T06:52:50.659Z,101539.80
2019-01-18T06:53:55.504Z,101549.56
2019-01-18T06:55:00.672Z,101556.78
2019-01-18T06:56:05.553Z,101552.09
2019-01-18T06:57:10.543Z,101558.72
2019-01-18T06:58:16.195Z,101560.31
2019-01-18T06:59:21.625Z,101558.66
2019-01-18T07:00:29.145Z,101566.55
2019-01-18T07:01:34.013Z,101562.25
2019-01-18T07:02:39.667Z,101571.51
2019-01-18T07:03:44.605Z,101573.38
2019-01-18T07:04:49.318Z,101571.89
2019-01-18T07:05:54.169Z,101572.98
2019-01-18T07:06:59.470Z,101573.38
2019-01-18T07:08:04.890Z,101570.45
2019-01-18T07:09:10.248Z,101569.85
2019-01-18T07:10:20.663Z,101565.48
2019-01-18T07:11:22.522Z,101573.55
2019-01-18T07:12:27.465Z,101571.83
2019-01-18T07:13:35.708Z,101569.29
2019-01-18T07:14:40.903Z,101572.39
2019-01-18T07:15:45.688Z,101565.10
2019-01-18T07:16:50.836Z,101576.40
2019-01-18T07:17:56.105Z,101569.57
2019-01-18T07:19:00.648Z,101576.19
2019-01-18T07:20:05.303Z,101573.55
2019-01-18T07:21:10.495Z,101578.44
2019-01-18T07:22:15.270Z,101577.84
2019-01-18T07:23:20.494Z,101576.96
2019-01-18T07:24:25.575Z,101576.49
2019-01-18T07:25:31.917Z,101584.48
2019-01-18T07:26:36.712Z,101572.00
2019-01-18T07:27:42.015Z,101573.36
2019-01-18T07:28:47.420Z,101576.50
2019-01-18T07:29:52.571Z,101583.68
2019-01-18T07:30:57.474Z,101581.64
2019-01-18T07:32:02.719Z,101583.40
2019-01-18T07:33:10.175Z,101575.41
2019-01-18T07:34:15.428Z,101578.16
2019-01-18T07:35:20.588Z,101578.05
2019-01-18T07:36:26.283Z,101578.92
2019-01-18T07:37:31.537Z,101582.34
2019-01-18T07:38:36.372Z,101582.23
2019-01-18T07:39:41.357Z,101587.68
2019-01-18T07:40:46.850Z,101590.89
2019-01-18T07:41:52.130Z,101589.44
2019-01-18T07:42:59.786Z,101588.08
2019-01-18T07:44:04.344Z,101590.61
2019-01-18T07:45:12.778Z,101592.23
2019-01-18T07:46:17.579Z,101590.82
2019-01-18T07:47:22.610Z,101584.55
2019-01-18T07:48:28.326Z,101592.34
2019-01-18T07:49:33.553Z,101594.00
2019-01-18T07:50:38.496Z,101590.41
2019-01-18T07:51:43.719Z,101593.50
2019-01-18T07:52:49.066Z,101598.41
2019-01-18T07:53:53.582Z,101598.08
2019-01-18T07:54:58.496Z,101606.77
2019-01-18T07:56:03.296Z,101602.11
2019-01-18T07:57:08.273Z,101598.80
2019-01-18T07:58:13.127Z,101602.28
2019-01-18T07:59:17.902Z,101608.34
2019-01-18T08:00:24.881Z,101609.91
2019-01-18T08:01:29.977Z,101616.07
2019-01-18T08:02:34.788Z,101617.13
2019-01-18T08:03:39.303Z,101614.31
2019-01-18T08:04:44.155Z,101611.57
2019-01-18T08:05:50.000Z,101612.17
2019-01-18T08:06:54.707Z,101615.38
2019-01-18T08:07:59.779Z,101618.22
2019-01-18T08:09:07.806Z,101615.30
2019-01-18T08:10:17.368Z,101610.91
2019-01-18T08:11:22.960Z,101614.90
2019-01-18T08:12:27.802Z,101619.87
2019-01-18T08:13:33.200Z,101620.37
2019-01-18T08:14:38.039Z,101625.05
2019-01-18T08:15:43.204Z,101625.52
2019-01-18T08:16:48.429Z,101630.13
2019-01-18T08:17:53.631Z,101625.50
2019-01-18T08:18:58.429Z,101624.83
2019-01-18T08:20:03.988Z,101630.95
2019-01-18T08:21:09.192Z,101628.73
2019-01-18T08:22:13.944Z,101629.59
2019-01-18T08:23:19.098Z,101631.02
2019-01-18T08:24:23.861Z,101636.47
2019-01-18T08:25:28.682Z,101628.14
2019-01-18T08:26:33.622Z,101633.67
2019-01-18T08:27:38.401Z,101638.59
2019-01-18T08:28:42.901Z,101633.73
2019-01-18T08:29:48.380Z,101637.91
2019-01-18T08:30:53.199Z,101635.80
2019-01-18T08:31:58.113Z,101642.20
2019-01-18T08:33:02.594Z,101639.91
2019-01-18T08:34:07.434Z,101644.82
2019-01-18T08:35:13.119Z,101646.42
2019-01-18T08:36:17.900Z,101650.04
2019-01-18T08:37:23.540Z,101649.75
2019-01-18T08:38:28.330Z,101649.48
2019-01-18T08:39:33.511Z,101653.73
2019-01-18T08:40:40.588Z,101657.33
2019-01-18T08:41:45.866Z,101654.16
2019-01-18T08:42:51.314Z,101658.80
2019-01-18T08:43:56.645Z,101652.34
2019-01-18T08:45:01.718Z,101659.88
2019-01-18T08:46:08.902Z,101661.14
2019-01-18T08:47:14.088Z,101664.81
2019-01-18T08:48:19.217Z,101665.85
2019-01-18T08:49:24.235Z,101660.14
2019-01-18T08:50:29.328Z,101666.83
2019-01-18T08:51:34.585Z,101670.83
2019-01-18T08:52:40.511Z,101669.80
2019-01-18T08:53:45.297Z,101673.44
2019-01-18T08:54:50.878Z,101667.92
2019-01-18T08:55:55.661Z,101674.85
2019-01-18T08:57:00.966Z,101673.60
2019-01-18T08:58:06.165Z,101668.28
2019-01-18T08:59:11.718Z,101666.83
2019-01-18T09:00:19.207Z,101670.89
2019-01-18T09:01:25.095Z,101667.55
2019-01-18T09:02:30.587Z,101679.19
2019-01-18T09:03:36.726Z,101682.30
2019-01-18T09:04:42.054Z,101682.14
2019-01-18T09:05:46.830Z,101679.33
2019-01-18T09:06:51.618Z,101690.23
2019-01-18T09:07:56.157Z,101689.34
2019-01-18T09:09:01.299Z,101686.48
2019-01-18T09:10:07.496Z,101692.59
2019-01-18T09:11:12.368Z,101693.91
2019-01-18T09:12:17.526Z,101693.81
2019-01-18T09:13:22.786Z,101696.92
2019-01-18T09:14:27.669Z,101697.03
2019-01-18T09:15:32.569Z,101698.98
2019-01-18T09:16:38.233Z,101702.45
2019-01-18T09:17:46.300Z,101699.09
2019-01-18T09:18:51.431Z,101701.36
2019-01-18T09:19:56.609Z,101703.89
2019-01-18T09:21:01.802Z,101704.55
2019-01-18T09:22:06.613Z,101700.30
2019-01-18T09:23:12.191Z,101705.28
2019-01-18T09:24:17.332Z,101707.22
2019-01-18T09:25:22.230Z,101708.58
2019-01-18T09:26:27.526Z,101710.06
2019-01-18T09:27:32.390Z,101709.69
2019-01-18T09:28:37.710Z,101714.66
2019-01-18T09:29:42.932Z,101714.69
2019-01-18T09:30:47.759Z,101711.73
2019-01-18T09:31:52.619Z,101712.66
2019-01-18T09:32:57.657Z,101710.96
2019-01-18T09:34:02.818Z,101711.72
2019-01-18T09:35:09.577Z,101715.03
2019-01-18T09:36:14.818Z,101708.39
2019-01-18T09:37:19.774Z,101713.95
2019-01-18T09:38:25.054Z,101712.81
2019-01-18T09:39:30.526Z,101717.67
2019-01-18T09:40:35.354Z,101720.55
2019-01-18T09:41:40.549Z,101718.25
2019-01-18T09:42:45.816Z,101723.56
2019-01-18T09:43:50.643Z,101716.19
2019-01-18T09:44:55.767Z,101721.34
2019-01-18T09:46:00.961Z,101719.47
2019-01-18T09:47:06.183Z,101725.02
2019-01-18T09:48:11.981Z,101730.00
2019-01-18T09:49:16.757Z,101727.05
2019-01-18T09:50:27.247Z,101723.64
2019-01-18T09:51:32.168Z,101728.52
2019-01-18T09:52:37.668Z,101733.58
2019-01-18T09:53:42.904Z,101734.42
2019-01-18T09:54:48.782Z,101733.98
2019-01-18T09:55:53.571Z,101728.87
2019-01-18T09:56:58.565Z,101733.22
2019-01-18T09:58:03.804Z,101735.54
2019-01-18T09:59:08.864Z,101727.39
2019-01-18T10:00:22.735Z,101741.23
2019-01-18T10:01:28.008Z,101739.98
2019-01-18T10:02:33.500Z,101738.36
2019-01-18T10:03:39.007Z,101735.09
2019-01-18T10:04:45.017Z,101738.71
2019-01-18T10:05:50.259Z,101739.83
2019-01-18T10:06:54.766Z,101747.14
2019-01-18T10:07:59.686Z,101746.69
2019-01-18T10:09:07.826Z,101748.82
2019-01-18T10:10:15.201Z,101745.28
2019-01-18T10:11:20.698Z,101745.24
2019-01-18T10:12:25.848Z,101745.13
2019-01-18T10:13:31.945Z,101742.84
2019-01-18T10:14:36.826Z,101745.80
2019-01-18T10:15:46.333Z,101744.23
2019-01-18T10:16:50.885Z,101739.38
2019-01-18T10:18:00.570Z,101745.64
2019-01-18T10:19:03.038Z,101736.43
2019-01-18T10:20:10.260Z,101748.77
2019-01-18T10:21:15.829Z,101741.94
2019-01-18T10:22:20.702Z,101748.73
2019-01-18T10:23:25.584Z,101749.36
2019-01-18T10:24:30.812Z,101743.50
2019-01-18T10:25:36.045Z,101741.10
2019-01-18T10:26:41.302Z,101750.11
2019-01-18T10:27:46.866Z,101747.92
2019-01-18T10:28:51.977Z,101748.66
2019-01-18T10:30:00.243Z,101745.80
2019-01-18T10:31:04.849Z,101754.64
2019-01-18T10:32:09.952Z,101749.02
2019-01-18T10:33:15.179Z,101752.25
2019-01-18T10:34:20.323Z,101752.77
2019-01-18T10:35:25.360Z,101754.61
2019-01-18T10:36:30.515Z,101750.16
2019-01-18T10:37:36.138Z,101756.07
2019-01-18T10:38:41.851Z,101753.71
2019-01-18T10:39:46.345Z,101750.70
2019-01-18T10:40:51.461Z,101752.38
2019-01-18T10:41:57.026Z,101751.18
2019-01-18T10:43:02.167Z,101755.55
2019-01-18T10:44:06.982Z,101750.69
2019-01-18T10:45:12.314Z,101754.01
2019-01-18T10:46:17.880Z,101757.23
2019-01-18T10:47:23.712Z,101756.77
2019-01-18T10:48:29.582Z,101751.30
2019-01-18T10:49:35.380Z,101753.84
2019-01-18T10:50:40.194Z,101754.19
2019-01-18T10:51:45.128Z,101746.67
2019-01-18T10:52:50.111Z,101752.46
2019-01-18T10:53:54.932Z,101757.91
2019-01-18T10:54:59.444Z,101755.80
2019-01-18T10:56:04.732Z,101753.59
2019-01-18T10:57:09.652Z,101757.75
2019-01-18T10:58:15.083Z,101750.90
2019-01-18T10:59:20.233Z,101762.11
2019-01-18T11:00:30.541Z,101755.31
2019-01-18T11:01:35.744Z,101756.89
2019-01-18T11:02:40.525Z,101750.99
2019-01-18T11:03:45.334Z,101750.89
2019-01-18T11:04:50.925Z,101749.81
2019-01-18T11:05:56.741Z,101748.34
2019-01-18T11:07:01.568Z,101744.52
2019-01-18T11:08:06.315Z,101747.77
2019-01-18T11:09:11.473Z,101750.55
2019-01-18T11:10:16.281Z,101756.84
2019-01-18T11:11:21.446Z,101755.23
2019-01-18T11:12:25.983Z,101759.31
2019-01-18T11:13:31.157Z,101754.88
2019-01-18T11:14:36.019Z,101753.49
2019-01-18T11:15:40.907Z,101756.55
2019-01-18T11:16:45.761Z,101752.19
2019-01-18T11:17:51.079Z,101752.30
2019-01-18T11:18:56.486Z,101747.70
2019-01-18T11:20:01.637Z,101749.14
2019-01-18T11:21:21.416Z,101749.48
2019-01-18T11:22:26.307Z,101746.36
2019-01-18T11:23:31.155Z,101746.45
2019-01-18T11:24:36.292Z,101747.08
2019-01-18T11:25:41.179Z,101742.92
2019-01-18T11:26:45.973Z,101743.05
2019-01-18T11:27:50.486Z,101737.14
2019-01-18T11:28:55.599Z,101739.94
2019-01-18T11:30:00.288Z,101739.00
2019-01-18T11:31:05.441Z,101736.53
2019-01-18T11:32:13.819Z,101734.53
2019-01-18T11:33:17.240Z,101735.53
2019-01-18T11:34:22.637Z,101728.74
2019-01-18T11:35:27.831Z,101724.80
2019-01-18T11:36:33.098Z,101724.17
2019-01-18T11:37:37.577Z,101725.39
2019-01-18T11:38:42.838Z,101725.14
2019-01-18T11:39:48.037Z,101725.63
2019-01-18T11:40:53.049Z,101724.70
2019-01-18T11:41:57.812Z,101716.55
2019-01-18T11:43:02.662Z,101725.20
2019-01-18T11:44:07.487Z,101723.92
2019-01-18T11:45:12.487Z,101722.61
2019-01-18T11:46:17.628Z,101725.80
2019-01-18T11:47:22.827Z,101717.97
2019-01-18T11:48:28.682Z,101722.83
2019-01-18T11:49:33.490Z,101727.09
2019-01-18T11:50:39.204Z,101718.80
2019-01-18T11:51:44.007Z,101724.08
2019-01-18T11:52:48.883Z,101725.11
2019-01-18T11:53:54.070Z,101722.52
2019-01-18T11:54:59.612Z,101726.14
2019-01-18T11:56:05.210Z,101721.86
2019-01-18T11:57:10.865Z,101717.95
2019-01-18T11:58:16.250Z,101717.45
2019-01-18T11:59:21.909Z,101720.20
2019-01-18T12:00:28.124Z,101719.80
2019-01-18T12:01:33.562Z,101722.48
2019-01-18T12:02:38.375Z,101719.38
2019-01-18T12:03:44.255Z,101717.65
2019-01-18T12:04:49.452Z,101710.92
2019-01-18T12:05:54.549Z,101715.47
2019-01-18T12:07:00.037Z,101715.53
2019-01-18T12:08:05.211Z,101717.41
2019-01-18T12:09:10.212Z,101713.62
2019-01-18T12:10:18.373Z,101713.66
2019-01-18T12:11:22.876Z,101709.95
2019-01-18T12:12:27.809Z,101711.23
2019-01-18T12:13:32.603Z,101714.68
2019-01-18T12:14:37.393Z,101710.92
2019-01-18T12:15:43.316Z,101709.77
2019-01-18T12:16:48.889Z,101713.02
2019-01-18T12:17:54.372Z,101713.34
2019-01-18T12:18:59.230Z,101712.52
2019-01-18T12:20:04.333Z,101710.23
2019-01-18T12:21:09.920Z,101717.00
2019-01-18T12:22:14.991Z,101710.36
2019-01-18T12:23:20.211Z,101705.77
2019-01-18T12:24:24.710Z,101711.59
2019-01-18T12:25:29.893Z,101708.54
2019-01-18T12:26:35.037Z,101712.15